Time;durP1;ratioP1;P1;durP2;ratioP2;P2;SDS_P1;SDS_P2;PMS_P1;PMS_P2;Temp;Humidity;BMP_temperature;BMP_pressure;BME280_temperature;BME280_humidity;BME280_pressure;Samples;Min_cycle;Max_cycle;Signal;HPM_P1;HPM_P2
2024/02/27 00:01:13;;;;;;;;;49.25;34.25;;;;;10.91;93.40;99950.52;114236;241;40823;-52
2024/02/27 00:04:01;;;;;;;;;41.25;31.00;;;;;10.85;93.28;99950.79;114580;241;39315;-51
2024/02/27 00:06:35;;;;;;;;;45.00;32.00;;;;;10.79;93.15;99948.77;114447;238;162341;-52
2024/02/27 00:09:13;;;;;;;;;43.33;32.67;;;;;10.73;93.26;99948.33;114606;241;40943;-52
2024/02/27 00:11:47;;;;;;;;;48.25;34.50;;;;;10.66;93.31;99953.92;114594;239;162262;-53
2024/02/27 00:14:21;;;;;;;;;52.75;38.25;;;;;10.62;93.38;99954.14;114584;241;39489;-54
2024/02/27 00:16:55;;;;;;;;;45.50;34.00;;;;;10.58;93.48;99953.33;114477;239;162677;-51
2024/02/27 00:19:29;;;;;;;;;48.00;35.00;;;;;10.53;93.51;99951.94;114638;240;40548;-52
2024/02/27 00:22:02;;;;;;;;;45.75;33.25;;;;;10.49;93.51;99953.65;114841;240;40248;-50
2024/02/27 00:24:36;;;;;;;;;47.00;33.33;;;;;10.45;93.42;99955.00;114507;240;162424;-52
2024/02/27 00:27:10;;;;;;;;;44.00;32.75;;;;;10.42;93.56;99959.64;114589;241;39640;-51
2024/02/27 00:29:44;;;;;;;;;50.25;35.75;;;;;10.42;93.62;99964.71;114444;238;162010;-49
2024/02/27 00:32:18;;;;;;;;;47.00;32.00;;;;;10.35;93.54;99964.00;114597;240;39476;-53
2024/02/27 00:34:52;;;;;;;;;51.00;35.00;;;;;10.32;93.62;99967.77;114455;239;162277;-53
2024/02/27 00:37:25;;;;;;;;;39.50;28.25;;;;;10.32;93.62;99968.69;114566;241;39905;-54
2024/02/27 00:39:59;;;;;;;;;42.25;29.00;;;;;10.23;94.22;99970.40;114580;241;39315;-54
2024/02/27 00:42:33;;;;;;;;;46.75;35.75;;;;;10.23;94.11;99968.70;114436;239;163094;-54
2024/02/27 00:45:08;;;;;;;;;34.00;25.50;;;;;10.17;94.04;99963.84;114587;240;39723;-54
2024/02/27 00:47:42;;;;;;;;;49.25;34.50;;;;;10.16;94.67;99967.65;114441;240;162094;-53
2024/02/27 00:50:16;;;;;;;;;37.75;27.50;;;;;10.15;94.63;99967.66;114551;240;40947;-54
2024/02/27 00:52:50;;;;;;;;;42.00;31.00;;;;;10.18;94.85;99972.16;114434;239;162503;-53
2024/02/27 00:55:24;;;;;;;;;35.75;27.50;;;;;10.17;94.93;99972.14;114526;241;40447;-53
2024/02/27 00:57:57;;;;;;;;;39.00;28.00;;;;;10.13;94.63;99973.33;114619;240;39810;-51
2024/02/27 01:00:31;;;;;;;;;42.00;31.75;;;;;10.08;94.62;99978.31;114460;231;186348;-51
2024/02/27 01:03:06;;;;;;;;;42.00;33.00;;;;;10.01;94.57;99979.90;114635;240;39850;-52
2024/02/27 01:05:40;;;;;;;;;45.00;32.00;;;;;9.96;94.57;99980.34;114467;239;162048;-52
2024/02/27 01:08:13;;;;;;;;;48.50;35.00;;;;;9.93;94.98;99985.05;114601;240;39406;-52
2024/02/27 01:10:48;;;;;;;;;40.00;29.00;;;;;9.86;94.78;99987.79;114518;239;162401;-52
2024/02/27 01:13:21;;;;;;;;;45.75;32.50;;;;;9.84;94.81;99991.98;114587;240;39737;-52
2024/02/27 01:15:55;;;;;;;;;38.33;28.33;;;;;9.90;95.12;99989.80;114596;240;40047;-52
2024/02/27 01:18:29;;;;;;;;;37.00;28.00;;;;;9.82;95.43;99987.54;114441;239;162167;-53
2024/02/27 01:21:05;;;;;;;;;42.00;32.00;;;;;9.79;94.89;99986.67;114573;240;39128;-53
2024/02/27 01:23:38;;;;;;;;;37.67;27.33;;;;;9.70;95.13;99988.22;114444;239;161968;-53
2024/02/27 01:26:13;;;;;;;;;44.00;30.00;;;;;9.68;95.01;99990.80;114555;240;40827;-53
2024/02/27 01:28:46;;;;;;;;;35.25;26.25;;;;;9.68;95.24;99992.23;114482;239;162182;-52
2024/02/27 01:31:20;;;;;;;;;43.00;32.25;;;;;9.65;95.50;99988.52;114534;240;40418;-54
2024/02/27 01:33:54;;;;;;;;;42.33;31.33;;;;;9.64;96.23;99991.06;114586;240;39465;-54
2024/02/27 01:36:29;;;;;;;;;51.75;35.25;;;;;9.64;95.94;99994.02;114417;239;162057;-53
2024/02/27 01:39:04;;;;;;;;;34.00;24.50;;;;;9.62;95.79;100000.05;114594;240;40421;-53
2024/02/27 01:41:39;;;;;;;;;33.67;25.67;;;;;9.66;96.08;99997.02;114437;239;162806;-53
2024/02/27 01:44:13;;;;;;;;;36.50;24.50;;;;;9.68;95.87;99998.56;114586;240;39690;-54
2024/02/27 01:46:47;;;;;;;;;42.00;30.00;;;;;9.65;96.16;100004.52;114435;239;162049;-50
2024/02/27 01:49:21;;;;;;;;;46.00;34.00;;;;;9.57;96.22;100005.86;114568;240;40866;-51
2024/02/27 01:51:56;;;;;;;;;34.00;25.50;;;;;9.57;96.11;100004.43;114600;240;40698;-54
2024/02/27 01:54:30;;;;;;;;;33.00;23.75;;;;;9.58;96.39;100007.19;114443;239;161958;-54
2024/02/27 01:57:05;;;;;;;;;45.50;33.25;;;;;9.61;96.71;100008.22;114622;240;40781;-54
2024/02/27 01:59:41;;;;;;;;;49.00;35.00;;;;;9.61;96.38;100009.88;114464;239;162253;-53
2024/02/27 02:02:16;;;;;;;;;44.00;34.00;;;;;9.58;96.35;100013.83;114582;240;40913;-51
2024/02/27 02:04:51;;;;;;;;;44.00;31.50;;;;;9.53;96.45;100011.86;114428;240;162267;-52
2024/02/27 02:07:25;;;;;;;;;46.25;32.50;;;;;9.52;96.51;100011.77;114570;240;39467;-53
2024/02/27 02:10:00;;;;;;;;;31.25;22.50;;;;;9.50;96.63;100011.42;114605;240;40065;-53
2024/02/27 02:12:34;;;;;;;;;37.00;27.00;;;;;9.47;97.20;100015.34;114404;239;162294;-52
2024/02/27 02:15:09;;;;;;;;;37.25;28.00;;;;;9.45;97.30;100012.08;114560;240;39930;-51
2024/02/27 02:17:45;;;;;;;;;45.25;33.00;;;;;9.43;97.43;100016.20;114458;240;162158;-54
2024/02/27 02:20:20;;;;;;;;;38.67;30.00;;;;;9.44;97.25;100018.33;114553;242;41226;-54
2024/02/27 02:22:54;;;;;;;;;46.00;34.00;;;;;9.42;97.47;100016.18;114420;239;162252;-50
2024/02/27 02:25:32;;;;;;;;;44.00;32.00;;;;;9.41;97.91;100014.66;114546;241;40288;-50
2024/02/27 02:28:06;;;;;;;;;39.67;29.33;;;;;9.41;97.58;100018.96;114568;241;40910;-53
2024/02/27 02:30:40;;;;;;;;;34.75;26.50;;;;;9.41;97.57;100019.38;114443;240;161993;-53
2024/02/27 02:33:15;;;;;;;;;40.00;30.00;;;;;9.40;97.48;100022.20;114585;242;39492;-53
2024/02/27 02:35:49;;;;;;;;;37.00;26.00;;;;;9.37;97.68;100025.17;114474;242;163348;-53
2024/02/27 02:38:23;;;;;;;;;41.00;29.75;;;;;9.33;98.03;100028.61;114587;242;39495;-53
2024/02/27 02:40:57;;;;;;;;;41.00;29.00;;;;;9.31;97.75;100033.78;114491;242;163449;-54
2024/02/27 02:43:31;;;;;;;;;40.75;28.00;;;;;9.34;97.69;100031.82;114610;242;39360;-53
2024/02/27 02:46:05;;;;;;;;;41.75;31.25;;;;;9.30;97.60;100032.23;114619;242;39555;-53
2024/02/27 02:48:39;;;;;;;;;33.00;24.67;;;;;9.25;97.57;100029.44;114412;239;162211;-53
2024/02/27 02:51:13;;;;;;;;;41.75;32.00;;;;;9.24;97.56;100032.87;114595;241;40940;-53
2024/02/27 02:53:47;;;;;;;;;36.33;27.00;;;;;9.20;97.72;100034.27;114448;239;162561;-53
2024/02/27 02:56:21;;;;;;;;;29.75;23.00;;;;;9.19;97.70;100031.20;114571;241;41191;-53
2024/02/27 02:58:55;;;;;;;;;34.33;24.00;;;;;9.17;97.83;100034.24;114461;239;162223;-50
2024/02/27 03:01:29;;;;;;;;;47.50;32.75;;;;;9.18;97.76;100036.33;114539;241;39376;-50
2024/02/27 03:04:03;;;;;;;;;34.50;25.50;;;;;9.17;97.72;100033.58;114578;241;39843;-53
2024/02/27 03:06:36;;;;;;;;;36.00;25.00;;;;;9.13;97.78;100038.49;114262;241;162875;-52
2024/02/27 03:09:10;;;;;;;;;37.00;27.00;;;;;9.08;97.88;100041.50;114615;242;40570;-53
2024/02/27 03:11:44;;;;;;;;;44.67;31.00;;;;;9.10;97.75;100037.84;114428;239;162128;-52
2024/02/27 03:14:18;;;;;;;;;42.00;31.00;;;;;9.09;98.21;100043.00;114552;241;40788;-52
2024/02/27 03:16:51;;;;;;;;;37.00;27.50;;;;;9.07;97.88;100044.21;114441;239;162326;-51
2024/02/27 03:19:26;;;;;;;;;41.50;29.75;;;;;9.07;97.82;100046.00;114539;241;40002;-50
2024/02/27 03:22:00;;;;;;;;;43.00;31.00;;;;;9.01;97.92;100047.13;114592;241;39374;-52
2024/02/27 03:24:34;;;;;;;;;33.00;25.00;;;;;9.02;98.02;100054.56;114439;239;162267;-51
2024/02/27 03:27:08;;;;;;;;;33.00;24.50;;;;;9.01;97.90;100056.25;114592;242;40111;-50
2024/02/27 03:29:42;;;;;;;;;36.00;26.25;;;;;8.98;97.78;100055.20;114506;242;162160;-51
2024/02/27 03:32:15;;;;;;;;;44.00;32.00;;;;;8.95;97.78;100058.53;114738;242;40266;-50
2024/02/27 03:34:49;;;;;;;;;44.00;30.50;;;;;8.95;97.62;100060.19;114466;240;162516;-50
2024/02/27 03:37:23;;;;;;;;;43.00;30.00;;;;;8.89;97.83;100061.44;114731;242;39304;-51
2024/02/27 03:39:57;;;;;;;;;40.00;28.75;;;;;8.83;97.81;100060.54;114538;242;39605;-51
2024/02/27 03:42:31;;;;;;;;;49.00;34.00;;;;;8.81;97.91;100059.48;114615;240;162066;-53
2024/02/27 03:45:05;;;;;;;;;40.75;28.75;;;;;8.77;97.96;100063.57;114599;242;39326;-52
2024/02/27 03:47:39;;;;;;;;;43.25;31.75;;;;;8.79;97.92;100066.20;114527;240;162474;-53
2024/02/27 03:50:14;;;;;;;;;31.25;24.00;;;;;8.77;97.70;100070.67;114646;242;39389;-53
2024/02/27 03:52:47;;;;;;;;;37.75;26.25;;;;;8.77;98.07;100067.27;114438;240;162391;-51
2024/02/27 03:55:21;;;;;;;;;31.25;23.25;;;;;8.79;98.08;100071.69;114668;242;39757;-51
2024/02/27 03:57:55;;;;;;;;;31.00;22.00;;;;;8.77;97.99;100074.02;114578;242;40097;-53
2024/02/27 04:00:29;;;;;;;;;35.33;27.67;;;;;8.73;98.10;100076.92;114599;240;162137;-53
2024/02/27 04:03:03;;;;;;;;;32.75;24.25;;;;;8.75;98.20;100071.77;114570;242;40369;-50
2024/02/27 04:05:36;;;;;;;;;37.75;28.00;;;;;8.78;98.28;100068.23;114482;240;162263;-50
2024/02/27 04:08:10;;;;;;;;;32.00;25.00;;;;;8.81;98.44;100064.27;114648;242;40336;-52
2024/02/27 04:10:45;;;;;;;;;39.00;28.00;;;;;8.83;98.67;100063.10;114570;242;40288;-52
2024/02/27 04:13:38;;;;;;;;;36.67;26.00;;;;;8.81;98.73;100065.88;113798;242;640423;-52
2024/02/27 04:16:32;;;;;;;;;33.00;25.00;;;;;8.77;98.62;100065.04;114600;242;39465;-52
2024/02/27 04:19:06;;;;;;;;;34.50;25.75;;;;;8.76;98.56;100069.14;114425;241;162090;-53
2024/02/27 04:21:40;;;;;;;;;43.50;31.50;;;;;8.76;98.65;100069.96;114549;242;39451;-53
2024/02/27 04:24:15;;;;;;;;;41.25;27.75;;;;;8.80;99.01;100062.77;114574;240;161999;-53
2024/02/27 04:26:49;;;;;;;;;35.25;25.00;;;;;8.82;98.62;100068.35;114641;242;39923;-51
2024/02/27 04:29:23;;;;;;;;;41.00;29.75;;;;;8.80;98.64;100071.88;114491;239;161921;-50
2024/02/27 04:31:57;;;;;;;;;44.00;30.33;;;;;8.78;98.40;100066.95;114614;241;40021;-53
2024/02/27 04:34:31;;;;;;;;;47.00;33.00;;;;;8.77;98.76;100061.55;114609;241;39373;-53
2024/02/27 04:37:05;;;;;;;;;34.75;24.75;;;;;8.76;98.92;100064.70;114447;239;162228;-52
2024/02/27 04:39:39;;;;;;;;;32.00;22.00;;;;;8.75;98.94;100062.48;114716;241;41561;-52
2024/02/27 04:42:12;;;;;;;;;35.33;27.00;;;;;8.75;98.88;100061.58;114463;239;162191;-52
2024/02/27 04:44:47;;;;;;;;;37.00;27.25;;;;;8.75;98.99;100065.72;114587;241;39201;-51
2024/02/27 04:47:21;;;;;;;;;37.00;26.75;;;;;8.74;98.72;100064.91;114473;241;162707;-53
2024/02/27 04:49:55;;;;;;;;;41.75;29.00;;;;;8.71;98.91;100063.88;114575;241;39864;-52
2024/02/27 04:52:30;;;;;;;;;41.50;30.25;;;;;8.72;98.96;100064.94;114586;241;40935;-53
2024/02/27 04:55:04;;;;;;;;;40.75;28.75;;;;;8.75;98.67;100067.14;114405;239;161894;-55
2024/02/27 04:57:38;;;;;;;;;36.75;28.25;;;;;8.80;98.80;100067.08;114599;241;39288;-51
2024/02/27 05:00:14;;;;;;;;;37.00;27.33;;;;;8.79;98.84;100069.00;114404;239;162155;-50
2024/02/27 05:02:48;;;;;;;;;40.00;29.67;;;;;8.82;99.02;100071.62;114592;241;39630;-50
2024/02/27 05:05:22;;;;;;;;;32.67;25.00;;;;;8.82;98.87;100075.23;114472;239;162543;-51
2024/02/27 05:07:57;;;;;;;;;32.25;24.00;;;;;8.79;98.81;100079.61;114572;241;39911;-53
2024/02/27 05:10:31;;;;;;;;;37.75;28.00;;;;;8.76;99.03;100089.73;114576;241;39423;-52
2024/02/27 05:13:05;;;;;;;;;42.00;31.00;;;;;8.76;99.10;100093.37;114426;239;161918;-52
2024/02/27 05:15:39;;;;;;;;;38.50;26.50;;;;;8.72;98.91;100091.58;114563;242;39995;-54
2024/02/27 05:18:13;;;;;;;;;46.25;31.50;;;;;8.70;98.99;100098.62;114571;240;162157;-50
2024/02/27 05:20:47;;;;;;;;;44.25;32.50;;;;;8.67;98.83;100102.63;114616;241;39963;-50
2024/02/27 05:23:21;;;;;;;;;37.50;28.00;;;;;8.64;98.95;100104.51;114502;239;162364;-53
2024/02/27 05:25:58;;;;;;;;;32.00;23.00;;;;;8.68;99.11;100109.65;114618;241;41063;-53
2024/02/27 05:28:32;;;;;;;;;35.75;25.25;;;;;8.70;99.21;100111.72;114616;241;39941;-50
2024/02/27 05:31:22;;;;;;;;;44.25;31.00;;;;;8.72;99.15;100109.91;114261;241;162101;-51
2024/02/27 05:33:57;;;;;;;;;29.00;22.00;;;;;8.70;98.94;100112.79;114589;242;39672;-51
2024/02/27 05:36:33;;;;;;;;;42.67;31.33;;;;;8.69;98.93;100119.74;114432;239;162056;-52
2024/02/27 05:39:08;;;;;;;;;35.00;26.25;;;;;8.67;98.82;100122.31;114557;241;39922;-51
2024/02/27 05:41:42;;;;;;;;;33.75;27.00;;;;;8.65;98.97;100129.94;114452;239;162304;-52
2024/02/27 05:44:16;;;;;;;;;31.00;23.00;;;;;8.69;99.17;100137.69;114575;241;39247;-52
2024/02/27 05:46:50;;;;;;;;;35.75;27.00;;;;;8.71;99.17;100139.64;114480;241;162187;-54
2024/02/27 05:49:24;;;;;;;;;36.00;26.00;;;;;8.73;99.01;100142.05;114529;241;40251;-54
2024/02/27 05:51:57;;;;;;;;;44.50;30.25;;;;;8.72;99.16;100146.52;114590;241;41185;-54
2024/02/27 05:54:31;;;;;;;;;41.67;28.00;;;;;8.75;98.77;100147.55;114436;239;161998;-53
2024/02/27 05:57:05;;;;;;;;;36.75;28.00;;;;;8.76;98.85;100146.69;114565;241;41167;-53
2024/02/27 05:59:39;;;;;;;;;37.00;28.00;;;;;8.66;99.11;100150.59;114476;240;162642;-53
2024/02/27 06:02:14;;;;;;;;;40.67;29.00;;;;;8.63;99.12;100150.02;114569;242;38952;-54
2024/02/27 06:04:47;;;;;;;;;40.33;28.67;;;;;8.64;99.17;100152.11;114441;239;162419;-55
2024/02/27 06:07:21;;;;;;;;;47.33;32.00;;;;;8.69;99.12;100151.02;114612;241;39814;-51
2024/02/27 06:09:56;;;;;;;;;47.67;34.00;;;;;8.65;98.99;100146.77;114630;241;41002;-50
2024/02/27 06:12:29;;;;;;;;;50.00;34.50;;;;;8.68;99.02;100151.63;114445;239;161972;-51
2024/02/27 06:15:04;;;;;;;;;41.50;30.50;;;;;8.73;98.97;100151.95;114608;241;39798;-51
2024/02/27 06:17:37;;;;;;;;;34.67;26.00;;;;;8.79;98.96;100154.41;114451;239;162149;-53
2024/02/27 06:23:01;;;;;;;;;45.33;32.00;;;;;8.91;98.68;100159.27;114494;241;162662;-53
2024/02/27 06:25:35;;;;;;;;;39.25;29.75;;;;;8.96;98.68;100155.14;114555;241;39645;-53
2024/02/27 06:28:10;;;;;;;;;43.00;32.00;;;;;9.03;98.63;100162.11;114604;241;41449;-54
2024/02/27 06:30:44;;;;;;;;;41.25;31.25;;;;;9.08;98.76;100164.23;114417;239;162045;-54
2024/02/27 06:33:18;;;;;;;;;44.00;31.75;;;;;9.13;98.54;100165.36;114620;241;40559;-51
2024/02/27 06:35:52;;;;;;;;;50.00;34.00;;;;;9.17;98.47;100169.05;114461;239;162032;-51
2024/02/27 06:38:25;;;;;;;;;38.75;29.75;;;;;9.21;98.41;100171.40;114578;241;41105;-51
2024/02/27 06:40:59;;;;;;;;;42.33;31.00;;;;;9.28;98.10;100171.46;114435;239;161745;-52
2024/02/27 06:43:34;;;;;;;;;40.75;30.00;;;;;9.33;97.97;100173.10;114567;241;39709;-53
2024/02/27 06:46:09;;;;;;;;;39.00;29.00;;;;;9.30;98.02;100172.97;114562;241;41433;-54
2024/02/27 06:48:42;;;;;;;;;31.25;22.50;;;;;9.29;97.66;100170.80;114438;239;161982;-54
2024/02/27 06:51:16;;;;;;;;;41.00;30.50;;;;;9.30;97.57;100173.11;114579;241;40391;-54
2024/02/27 06:53:50;;;;;;;;;39.75;27.00;;;;;9.41;97.71;100176.27;114451;239;162181;-54
2024/02/27 06:56:25;;;;;;;;;43.00;30.00;;;;;9.54;97.71;100173.13;114550;241;39419;-54
2024/02/27 06:58:59;;;;;;;;;46.33;33.00;;;;;9.80;97.63;100169.46;114479;239;162481;-54
2024/02/27 07:01:34;;;;;;;;;44.00;33.00;;;;;10.09;97.67;100171.08;114546;241;42741;-53
2024/02/27 07:04:08;;;;;;;;;42.50;32.00;;;;;10.26;97.47;100171.98;114629;241;41845;-51
2024/02/27 07:06:42;;;;;;;;;46.00;33.00;;;;;10.51;97.28;100178.16;114462;239;162472;-50
2024/02/27 07:09:16;;;;;;;;;45.67;34.00;;;;;10.95;97.17;100176.80;114644;241;40593;-51
2024/02/27 07:11:50;;;;;;;;;46.75;35.00;;;;;11.43;96.84;100175.91;114483;239;162250;-54
2024/02/27 07:14:25;;;;;;;;;42.50;32.00;;;;;11.59;96.50;100183.73;114617;241;39288;-54
2024/02/27 07:17:00;;;;;;;;;46.00;33.50;;;;;11.57;95.54;100184.88;114506;240;161922;-54
2024/02/27 07:19:34;;;;;;;;;50.00;37.50;;;;;11.53;95.29;100180.33;114561;241;39422;-56
2024/02/27 07:22:08;;;;;;;;;44.00;34.00;;;;;11.44;95.01;100180.03;114593;241;40430;-53
2024/02/27 07:24:42;;;;;;;;;44.25;33.50;;;;;11.43;94.47;100177.41;114444;239;161920;-53
2024/02/27 07:27:15;;;;;;;;;45.00;33.33;;;;;11.36;94.24;100180.06;114625;241;40192;-53
2024/02/27 07:29:50;;;;;;;;;49.00;35.00;;;;;11.32;94.14;100179.09;114441;239;162398;-51
2024/02/27 07:32:23;;;;;;;;;45.67;34.00;;;;;11.65;95.09;100184.00;114562;241;39279;-53
2024/02/27 07:34:57;;;;;;;;;40.00;29.67;;;;;11.90;94.64;100177.66;114436;239;162309;-57
2024/02/27 07:37:31;;;;;;;;;42.50;31.50;;;;;12.17;93.94;100177.51;114529;241;40079;-52
2024/02/27 07:40:06;;;;;;;;;45.67;33.67;;;;;12.52;93.56;100176.65;114600;241;40306;-54
2024/02/27 07:42:40;;;;;;;;;41.25;32.00;;;;;12.62;92.43;100182.27;114408;239;162476;-55
2024/02/27 07:45:15;;;;;;;;;55.75;38.50;;;;;12.82;91.81;100183.16;114580;241;39963;-55
2024/02/27 07:47:49;;;;;;;;;49.75;36.75;;;;;13.25;92.19;100179.33;114491;239;161580;-55
2024/02/27 07:50:23;;;;;;;;;47.00;35.50;;;;;14.28;92.42;100172.70;114563;241;40256;-54
2024/02/27 07:52:58;;;;;;;;;50.00;38.00;;;;;15.30;91.36;100171.64;114474;239;161643;-53
2024/02/27 07:55:32;;;;;;;;;48.25;36.00;;;;;15.36;89.73;100172.66;114559;241;39000;-54
2024/02/27 07:58:08;;;;;;;;;47.00;36.50;;;;;15.02;88.02;100175.80;114636;241;40069;-53
2024/02/27 08:00:42;;;;;;;;;53.00;39.25;;;;;14.73;86.96;100179.16;114447;239;161341;-53
2024/02/27 08:03:16;;;;;;;;;44.50;35.25;;;;;14.44;86.68;100181.80;114650;241;40722;-53
2024/02/27 08:05:51;;;;;;;;;50.00;35.00;;;;;14.11;86.29;100189.58;114616;239;161448;-53
2024/02/27 08:08:25;;;;;;;;;44.00;34.00;;;;;13.85;85.85;100183.73;114644;242;40006;-54
2024/02/27 08:10:59;;;;;;;;;47.00;36.00;;;;;13.66;85.71;100183.73;114469;239;162035;-54
2024/02/27 08:13:33;;;;;;;;;44.00;31.33;;;;;13.48;86.36;100182.36;114576;241;39723;-55
2024/02/27 08:16:08;;;;;;;;;51.00;37.00;;;;;13.37;86.18;100181.81;114530;241;39861;-55
2024/02/27 08:18:42;;;;;;;;;42.50;31.25;;;;;13.37;85.57;100181.05;114425;239;162425;-52
2024/02/27 08:21:16;;;;;;;;;45.50;35.75;;;;;13.31;85.39;100178.41;114579;241;39904;-52
2024/02/27 08:23:50;;;;;;;;;48.25;35.50;;;;;13.26;85.63;100179.96;114438;241;161478;-55
2024/02/27 08:26:24;;;;;;;;;45.50;34.25;;;;;13.21;85.49;100179.16;114555;241;39448;-55
2024/02/27 08:28:58;;;;;;;;;47.00;35.00;;;;;13.27;85.22;100179.36;114442;239;161866;-51
2024/02/27 08:31:32;;;;;;;;;46.00;34.25;;;;;13.36;84.83;100183.70;114547;241;40739;-54
2024/02/27 08:34:06;;;;;;;;;49.25;37.00;;;;;13.35;85.16;100181.48;114580;241;39822;-54
2024/02/27 08:36:40;;;;;;;;;49.25;36.50;;;;;13.30;85.70;100185.27;114454;239;161600;-55
2024/02/27 08:39:14;;;;;;;;;46.25;34.00;;;;;13.47;85.36;100181.95;114600;241;39431;-55
2024/02/27 08:41:50;;;;;;;;;42.00;31.00;;;;;13.54;84.84;100186.48;114467;239;162209;-55
2024/02/27 08:44:24;;;;;;;;;44.75;34.00;;;;;13.71;85.12;100185.77;114572;241;40647;-55
2024/02/27 08:46:59;;;;;;;;;42.25;31.75;;;;;14.03;84.86;100179.85;114487;239;162967;-55
2024/02/27 08:49:33;;;;;;;;;45.25;34.50;;;;;14.35;84.17;100181.48;114571;241;40943;-56
2024/02/27 08:52:07;;;;;;;;;51.00;36.50;;;;;14.41;82.45;100186.05;114581;241;39840;-60
2024/02/27 08:54:41;;;;;;;;;47.67;35.67;;;;;14.32;83.01;100186.25;114383;239;161767;-63
2024/02/27 08:57:15;;;;;;;;;52.00;38.00;;;;;14.38;83.13;100181.30;114580;241;40387;-55
2024/02/27 08:59:49;;;;;;;;;47.75;36.25;;;;;14.79;84.48;100175.16;114449;239;161501;-55
2024/02/27 09:02:24;;;;;;;;;47.00;36.00;;;;;15.58;83.97;100173.69;114535;241;41196;-52
2024/02/27 09:04:58;;;;;;;;;49.00;37.00;;;;;16.25;83.48;100186.77;114468;239;161647;-53
2024/02/27 09:07:32;;;;;;;;;49.00;37.00;;;;;16.68;82.53;100192.45;114553;241;40033;-53
2024/02/27 09:10:07;;;;;;;;;38.50;29.75;;;;;16.84;80.89;100189.90;114576;241;40686;-53
2024/02/27 09:12:43;;;;;;;;;48.33;36.00;;;;;17.00;80.75;100189.54;114447;239;161798;-53
2024/02/27 09:15:18;;;;;;;;;46.00;35.67;;;;;17.16;80.06;100186.11;114616;241;39455;-53
2024/02/27 09:17:52;;;;;;;;;47.75;37.00;;;;;17.68;78.85;100183.89;114445;239;161852;-56
2024/02/27 09:20:25;;;;;;;;;47.00;36.00;;;;;18.18;78.81;100182.53;114564;241;40839;-56
2024/02/27 09:22:59;;;;;;;;;46.25;36.00;;;;;18.38;78.14;100184.39;114446;239;164645;-53
2024/02/27 09:25:33;;;;;;;;;44.75;35.00;;;;;18.15;76.71;100186.89;114584;241;39847;-53
2024/02/27 09:28:08;;;;;;;;;44.00;35.00;;;;;18.09;74.69;100189.52;114603;241;41324;-55
2024/02/27 09:30:42;;;;;;;;;44.67;35.33;;;;;18.00;73.80;100183.65;114421;239;161610;-55
2024/02/27 09:33:16;;;;;;;;;40.50;31.25;;;;;17.85;74.14;100184.10;114564;241;41450;-55
2024/02/27 09:35:51;;;;;;;;;39.67;31.00;;;;;17.66;73.53;100187.15;114399;241;161954;-55
2024/02/27 09:38:25;;;;;;;;;36.00;29.00;;;;;17.30;73.27;100185.10;114575;242;40739;-55
2024/02/27 09:41:01;;;;;;;;;39.50;31.50;;;;;17.25;71.82;100182.85;114454;239;161893;-55
2024/02/27 09:43:37;;;;;;;;;36.25;27.50;;;;;17.12;72.29;100179.05;114648;242;39939;-55
2024/02/27 09:46:12;;;;;;;;;42.50;33.50;;;;;16.90;72.15;100175.98;114562;242;39364;-55
2024/02/27 09:48:48;;;;;;;;;41.67;32.67;;;;;16.92;71.87;100176.13;114433;239;161494;-53
2024/02/27 09:51:25;;;;;;;;;47.00;35.00;;;;;17.01;71.90;100173.14;114627;242;39509;-53
2024/02/27 09:54:01;;;;;;;;;43.50;34.00;;;;;16.94;72.43;100176.13;114421;239;161713;-53
2024/02/27 09:56:36;;;;;;;;;43.33;33.33;;;;;17.06;72.54;100172.22;114558;241;41388;-55
2024/02/27 09:59:10;;;;;;;;;42.00;33.00;;;;;17.36;72.19;100173.61;114491;240;161875;-54
2024/02/27 10:01:47;;;;;;;;;46.00;35.67;;;;;17.91;72.04;100177.02;114352;242;41131;-53
2024/02/27 10:04:23;;;;;;;;;46.50;36.00;;;;;18.63;71.82;100179.95;114260;242;39896;-53
2024/02/27 10:06:59;;;;;;;;;43.50;34.00;;;;;18.96;71.41;100184.02;114437;239;161719;-55
2024/02/27 10:09:35;;;;;;;;;46.25;35.00;;;;;19.06;70.72;100181.94;114574;241;40031;-56
2024/02/27 10:12:11;;;;;;;;;42.00;33.00;;;;;18.92;69.88;100181.77;114479;241;161740;-52
2024/02/27 10:14:45;;;;;;;;;43.50;34.00;;;;;18.69;69.51;100185.52;114583;242;40896;-53
2024/02/27 10:17:20;;;;;;;;;44.33;35.67;;;;;18.48;69.58;100188.19;114444;239;162254;-56
2024/02/27 10:19:54;;;;;;;;;42.00;34.00;;;;;18.37;69.90;100191.25;114556;241;40521;-56
2024/02/27 10:22:29;;;;;;;;;41.50;31.75;;;;;18.32;70.16;100193.29;114568;241;40744;-53
2024/02/27 10:25:14;;;;;;;;;39.25;31.50;;;;;18.34;69.63;100194.33;114506;240;162070;-53
2024/02/27 10:27:50;;;;;;;;;39.50;32.00;;;;;18.40;69.37;100192.73;114634;242;39188;-53
2024/02/27 10:30:28;;;;;;;;;32.50;25.00;;;;;18.48;69.42;100196.77;114225;241;161892;-54
2024/02/27 10:33:06;;;;;;;;;36.00;28.67;;;;;18.51;68.31;100197.30;114652;242;39848;-53
2024/02/27 10:35:40;;;;;;;;;42.00;33.00;;;;;18.43;67.10;100203.91;114449;242;161447;-53
2024/02/27 10:38:21;;;;;;;;;42.67;34.00;;;;;18.37;67.86;100202.02;114594;242;39740;-56
2024/02/27 10:40:55;;;;;;;;;38.50;30.50;;;;;18.42;67.74;100202.07;114432;242;161721;-56
2024/02/27 10:43:32;;;;;;;;;40.00;31.50;;;;;18.34;66.91;100197.40;114563;241;39671;-53
2024/02/27 10:46:07;;;;;;;;;39.50;30.50;;;;;18.22;67.01;100201.83;114562;241;39871;-53
2024/02/27 10:48:44;;;;;;;;;37.33;30.33;;;;;18.11;66.48;100205.65;114458;240;162921;-52
2024/02/27 10:51:18;;;;;;;;;43.75;32.50;;;;;17.90;66.85;100201.36;114569;242;39526;-52
2024/02/27 10:53:53;;;;;;;;;39.75;31.25;;;;;17.64;66.97;100204.09;114435;239;161823;-52
2024/02/27 10:56:28;;;;;;;;;37.75;30.00;;;;;17.46;67.31;100203.83;114554;241;39333;-52
2024/02/27 10:59:03;;;;;;;;;37.00;29.00;;;;;17.53;67.56;100201.70;114451;240;161848;-55
2024/02/27 11:01:40;;;;;;;;;30.50;25.00;;;;;17.57;67.29;100194.44;114565;242;39740;-54
2024/02/27 11:04:27;;;;;;;;;38.50;30.00;;;;;17.60;67.15;100196.80;114598;242;40030;-55
2024/02/27 11:07:04;;;;;;;;;38.00;30.25;;;;;17.47;66.70;100195.06;114425;239;161573;-54
2024/02/27 11:09:38;;;;;;;;;37.25;29.00;;;;;17.44;66.92;100203.17;114582;241;40464;-54
2024/02/27 11:12:16;;;;;;;;;35.00;28.00;;;;;17.33;66.68;100197.99;114607;240;161459;-52
2024/02/27 11:14:55;;;;;;;;;37.00;29.00;;;;;17.30;66.82;100198.92;114288;242;40500;-52
2024/02/27 11:17:33;;;;;;;;;36.00;28.00;;;;;17.34;67.04;100202.63;114436;238;161978;-55
2024/02/27 11:20:09;;;;;;;;;37.00;29.00;;;;;17.32;66.66;100204.86;114552;241;39068;-55
2024/02/27 11:22:44;;;;;;;;;30.50;24.25;;;;;17.17;66.41;100209.11;114597;241;40323;-55
2024/02/27 11:25:19;;;;;;;;;37.00;30.00;;;;;17.18;66.00;100205.90;114254;242;39516;-55
2024/02/27 11:27:55;;;;;;;;;33.75;27.00;;;;;17.17;66.38;100209.65;114551;242;39990;-53
2024/02/27 11:30:30;;;;;;;;;26.00;21.25;;;;;17.11;66.35;100210.55;114562;240;161630;-52
2024/02/27 11:33:04;;;;;;;;;32.00;25.33;;;;;17.06;66.41;100208.96;114567;242;39976;-55
2024/02/27 11:35:38;;;;;;;;;31.75;26.00;;;;;17.12;66.40;100209.70;114467;239;162300;-55
2024/02/27 11:38:13;;;;;;;;;31.00;26.00;;;;;17.16;65.60;100207.92;114571;241;39615;-52
2024/02/27 11:40:52;;;;;;;;;32.00;23.00;;;;;17.11;65.80;100202.45;114553;242;40013;-53
2024/02/27 11:43:26;;;;;;;;;33.75;27.25;;;;;17.07;65.88;100201.88;114618;242;39265;-52
2024/02/27 11:46:20;;;;;;;;;33.75;28.00;;;;;17.09;66.04;100202.64;114613;242;39842;-52
2024/02/27 11:48:54;;;;;;;;;29.25;23.00;;;;;17.28;66.51;100204.05;114611;240;161594;-52